Time;durP1;ratioP1;P1;durP2;ratioP2;P2;SDS_P1;SDS_P2;PMS_P1;PMS_P2;Temp;Humidity;BMP_temperature;BMP_pressure;BME280_temperature;BME280_humidity;BME280_pressure;Samples;Min_cycle;Max_cycle;Signal;HPM_P1;HPM_P2
2024/04/12 00:01:42;;;;;;;2.30;0.30;;;;;;;12.59;57.42;101340.75;86444;286;135096;-71
2024/04/12 00:03:47;;;;;;;3.60;0.70;;;;;;;12.59;57.44;101343.88;86500;279;22587;-71
2024/04/12 00:05:49;;;;;;;4.40;0.80;;;;;;;12.54;57.68;101338.51;86547;278;135389;-71
2024/04/12 00:08:01;;;;;;;1.60;0.40;;;;;;;12.51;57.99;101339.57;86144;272;890695;-71
2024/04/12 00:10:06;;;;;;;1.70;0.40;;;;;;;12.48;58.13;101340.15;86785;272;24173;-71
2024/04/12 00:12:07;;;;;;;2.30;0.60;;;;;;;12.44;58.45;101339.48;86736;272;135718;-72
2024/04/12 00:14:08;;;;;;;1.70;0.50;;;;;;;12.40;58.80;101336.20;86588;282;22609;-71
2024/04/12 00:16:09;;;;;;;1.70;0.90;;;;;;;12.41;58.81;101336.82;86719;273;136133;-72
2024/04/12 00:18:11;;;;;;;4.00;0.90;;;;;;;12.49;58.61;101337.14;86810;284;22574;-72
2024/04/12 00:20:12;;;;;;;2.80;0.70;;;;;;;12.48;58.93;101337.16;86730;280;136870;-70
2024/04/12 00:22:14;;;;;;;3.00;0.40;;;;;;;12.45;59.01;101336.31;86944;284;22561;-70
2024/04/12 00:24:16;;;;;;;2.40;0.70;;;;;;;12.47;58.83;101335.65;86761;276;136564;-70
2024/04/12 00:26:16;;;;;;;1.90;0.50;;;;;;;12.54;58.72;101339.95;86908;275;22527;-72
2024/04/12 00:28:17;;;;;;;1.20;0.70;;;;;;;12.52;58.57;101335.05;86760;276;136184;-72
2024/04/12 00:30:37;;;;;;;0.90;0.40;;;;;;;12.48;58.73;101337.95;86634;282;24161;-71
2024/04/12 00:32:42;;;;;;;2.10;0.40;;;;;;;12.41;58.84;101339.19;86762;276;136924;-73
2024/04/12 00:34:47;;;;;;;3.10;0.50;;;;;;;12.33;58.97;101341.11;87140;272;25202;-73
2024/04/12 00:36:48;;;;;;;3.20;0.70;;;;;;;12.23;59.45;101338.55;86604;276;135971;-73
2024/04/12 00:38:48;;;;;;;3.40;0.30;;;;;;;12.24;59.25;101341.10;86677;275;23748;-70
2024/04/12 00:40:52;;;;;;;1.70;0.30;;;;;;;12.26;59.45;101339.91;86641;279;135747;-69
2024/04/12 00:42:57;;;;;;;1.30;0.60;;;;;;;12.25;59.56;101344.13;86928;283;25243;-71
2024/04/12 00:44:58;;;;;;;2.50;0.50;;;;;;;12.19;59.79;101343.39;86993;272;136019;-70
2024/04/12 00:47:00;;;;;;;1.30;0.40;;;;;;;12.18;59.72;101343.85;86910;288;22549;-73
2024/04/12 00:49:06;;;;;;;2.10;0.40;;;;;;;12.14;59.98;101340.23;86729;284;136827;-72
2024/04/12 00:51:09;;;;;;;1.70;0.30;;;;;;;12.09;60.18;101344.02;86827;275;22574;-70
2024/04/12 00:53:13;;;;;;;3.50;0.60;;;;;;;12.02;60.63;101341.18;86736;274;135778;-73
2024/04/12 00:55:14;;;;;;;1.80;0.30;;;;;;;11.97;60.99;101343.66;87171;275;22835;-69
2024/04/12 00:57:15;;;;;;;3.40;0.50;;;;;;;11.92;60.96;101344.23;86849;275;136029;-71
2024/04/12 00:59:16;;;;;;;2.10;0.50;;;;;;;11.86;61.36;101341.77;86938;283;25164;-70
2024/04/12 01:01:17;;;;;;;1.50;0.50;;;;;;;11.82;61.47;101337.02;86968;275;135718;-68
2024/04/12 01:03:18;;;;;;;4.00;0.80;;;;;;;11.78;61.67;101338.33;87234;284;23775;-70
2024/04/12 01:05:19;;;;;;;3.80;0.90;;;;;;;11.74;61.77;101336.01;86939;273;135589;-69
2024/04/12 01:07:19;;;;;;;3.00;0.50;;;;;;;11.70;62.12;101335.19;87070;280;22535;-70
2024/04/12 01:09:21;;;;;;;4.70;0.50;;;;;;;11.66;62.18;101334.13;86915;283;135734;-71
2024/04/12 01:11:22;;;;;;;2.90;0.60;;;;;;;11.61;62.56;101333.12;86816;281;22724;-70
2024/04/12 01:13:23;;;;;;;3.40;0.60;;;;;;;11.58;62.69;101331.89;86910;281;136115;-72
2024/04/12 01:15:25;;;;;;;2.30;0.50;;;;;;;11.57;62.56;101333.79;86867;273;24832;-73
2024/04/12 01:17:26;;;;;;;1.50;0.70;;;;;;;11.55;62.58;101338.80;86775;275;135559;-72
2024/04/12 01:19:27;;;;;;;1.50;0.40;;;;;;;11.54;62.85;101335.32;87026;276;25172;-71
2024/04/12 01:21:29;;;;;;;1.50;0.80;;;;;;;11.53;62.48;101337.05;86898;271;135439;-71
2024/04/12 01:23:30;;;;;;;8.60;1.00;;;;;;;11.52;62.59;101335.89;86903;284;22570;-71
2024/04/12 01:25:32;;;;;;;2.20;0.70;;;;;;;11.50;62.85;101334.67;86693;273;135844;-69
2024/04/12 01:27:38;;;;;;;2.20;1.00;;;;;;;11.49;62.69;101335.34;86855;273;22608;-69
2024/04/12 01:29:38;;;;;;;3.30;1.00;;;;;;;11.47;62.98;101332.23;86942;273;137064;-71
2024/04/12 01:31:39;;;;;;;1.70;0.50;;;;;;;11.44;63.04;101332.38;86897;280;25093;-72
2024/04/12 01:33:40;;;;;;;1.40;0.60;;;;;;;11.53;62.51;101329.96;86778;280;135934;-71
2024/04/12 01:35:44;;;;;;;3.30;0.80;;;;;;;11.66;62.05;101328.65;86798;284;22655;-70
2024/04/12 01:37:45;;;;;;;2.80;0.80;;;;;;;11.42;62.75;101327.98;86974;275;136451;-70
2024/04/12 01:39:49;;;;;;;1.40;0.50;;;;;;;11.34;63.27;101327.98;86792;272;22577;-70
2024/04/12 01:41:52;;;;;;;4.30;0.90;;;;;;;11.29;63.49;101326.35;86921;276;137035;-70
2024/04/12 01:44:01;;;;;;;3.20;0.90;;;;;;;11.26;63.42;101324.02;87131;284;24150;-70
2024/04/12 01:46:04;;;;;;;1.80;1.00;;;;;;;11.23;63.37;101327.56;87705;276;135399;-71
2024/04/12 01:48:06;;;;;;;2.20;0.70;;;;;;;11.20;63.48;101321.95;88086;273;136149;-70
2024/04/12 01:50:06;;;;;;;1.70;0.80;;;;;;;11.23;63.52;101328.13;88039;284;22573;-73
2024/04/12 01:52:25;;;;;;;3.10;0.70;;;;;;;11.22;63.53;101327.30;87733;281;135953;-71
2024/04/12 01:54:32;;;;;;;2.40;0.90;;;;;;;11.19;63.76;101327.09;87322;275;22556;-70
2024/04/12 01:56:33;;;;;;;1.00;0.40;;;;;;;11.18;63.97;101325.67;87423;277;135781;-70
2024/04/12 01:58:34;;;;;;;2.30;0.80;;;;;;;11.16;63.65;101326.77;86900;284;22609;-70
2024/04/12 02:00:35;;;;;;;1.50;0.40;;;;;;;11.13;63.89;101325.30;86849;271;137426;-70
2024/04/12 02:02:35;;;;;;;3.80;0.90;;;;;;;11.11;64.11;101326.17;86843;276;24173;-72
2024/04/12 02:04:36;;;;;;;7.40;0.80;;;;;;;11.10;64.17;101324.71;86747;276;136070;-70
2024/04/12 02:06:42;;;;;;;3.00;0.70;;;;;;;11.08;64.33;101325.27;86779;275;27089;-70
2024/04/12 02:08:44;;;;;;;4.80;0.90;;;;;;;11.05;64.42;101322.48;86661;284;135830;-71
2024/04/12 02:10:48;;;;;;;4.30;1.30;;;;;;;11.04;64.59;101323.02;86818;276;25188;-70
2024/04/12 02:12:53;;;;;;;5.00;0.80;;;;;;;11.02;64.90;101323.77;86765;282;135577;-70
2024/04/12 02:14:59;;;;;;;3.40;0.50;;;;;;;11.00;64.84;101327.21;86931;275;25389;-70
2024/04/12 02:17:02;;;;;;;3.60;1.00;;;;;;;10.99;65.15;101327.48;86954;276;135655;-71
2024/04/12 02:19:06;;;;;;;1.30;0.60;;;;;;;10.99;65.16;101326.61;86725;277;22569;-71
2024/04/12 02:21:06;;;;;;;1.90;0.50;;;;;;;10.98;65.07;101333.63;86795;275;135733;-70
2024/04/12 02:23:07;;;;;;;3.10;0.70;;;;;;;10.97;65.44;101332.84;86868;283;22571;-72
2024/04/12 02:25:13;;;;;;;2.40;1.00;;;;;;;10.96;65.58;101332.58;86834;282;135849;-70
2024/04/12 02:27:13;;;;;;;2.40;0.90;;;;;;;10.93;65.78;101330.98;86757;277;24017;-69
2024/04/12 02:29:14;;;;;;;4.20;0.90;;;;;;;10.88;65.88;101328.82;86655;284;135639;-70
2024/04/12 02:31:15;;;;;;;2.60;0.60;;;;;;;10.85;66.10;101330.73;86884;275;25250;-71
2024/04/12 02:33:17;;;;;;;2.80;1.00;;;;;;;10.84;66.12;101331.61;86819;284;136209;-74
2024/04/12 02:35:21;;;;;;;2.90;1.30;;;;;;;10.82;66.14;101330.91;87372;272;22646;-73
2024/04/12 02:37:22;;;;;;;4.70;1.10;;;;;;;10.81;66.23;101333.56;87392;280;135923;-71
2024/04/12 02:39:23;;;;;;;2.70;1.30;;;;;;;10.80;66.31;101332.61;87124;272;22587;-69
2024/04/12 02:41:29;;;;;;;5.20;0.90;;;;;;;10.79;66.72;101330.01;87146;268;137165;-73
2024/04/12 02:43:32;;;;;;;2.10;0.90;;;;;;;10.77;66.77;101330.91;87330;278;24052;-71
2024/04/12 02:45:34;;;;;;;3.70;1.10;;;;;;;10.76;66.70;101331.48;87170;267;137439;-70
2024/04/12 02:47:35;;;;;;;3.00;0.60;;;;;;;10.72;66.89;101333.40;87125;270;22567;-70
2024/04/12 02:49:40;;;;;;;3.90;0.70;;;;;;;10.69;66.98;101335.78;87003;280;136658;-70
2024/04/12 02:51:47;;;;;;;;;;;;;;;10.66;66.66;101337.38;87306;270;22619;-71
2024/04/12 02:53:50;;;;;;;8.70;0.60;;;;;;;10.64;66.88;101340.96;86997;272;122738;-72
2024/04/12 02:56:00;;;;;;;2.60;0.90;;;;;;;10.64;66.83;101340.25;87182;272;25348;-71
2024/04/12 02:58:01;;;;;;;4.20;0.90;;;;;;;10.64;67.07;101342.27;87086;271;136127;-71
2024/04/12 03:00:03;;;;;;;2.30;0.80;;;;;;;10.63;67.14;101341.88;87256;268;22557;-70
2024/04/12 03:02:05;;;;;;;4.70;0.80;;;;;;;10.62;67.02;101341.61;87242;269;24068;-71
2024/04/12 03:04:09;;;;;;;2.10;0.90;;;;;;;10.62;67.24;101343.40;87191;272;135954;-70
2024/04/12 03:06:12;;;;;;;1.70;1.50;;;;;;;10.63;67.20;101344.84;87199;268;25223;-69
2024/04/12 03:08:17;;;;;;;7.00;1.50;;;;;;;10.66;66.63;101343.15;87073;279;136587;-73
2024/04/12 03:10:19;;;;;;;4.60;1.30;;;;;;;10.65;66.80;101347.44;87116;272;22575;-73
2024/04/12 03:12:21;;;;;;;2.60;0.90;;;;;;;10.66;66.92;101344.21;87138;268;137250;-71
2024/04/12 03:14:22;;;;;;;2.50;1.00;;;;;;;10.64;66.91;101346.89;87199;268;23737;-72
2024/04/12 03:16:23;;;;;;;3.30;1.10;;;;;;;10.62;67.05;101350.50;87013;271;136931;-71
2024/04/12 03:18:24;;;;;;;3.10;0.80;;;;;;;10.56;67.51;101349.93;87131;280;24247;-71
2024/04/12 03:20:29;;;;;;;3.30;0.80;;;;;;;10.53;67.63;101354.26;87110;280;136140;-71
2024/04/12 03:22:30;;;;;;;4.00;0.90;;;;;;;10.50;67.86;101352.27;87190;276;23739;-71
2024/04/12 03:24:31;;;;;;;6.10;1.50;;;;;;;10.48;67.85;101348.97;87070;278;136417;-70
2024/04/12 03:26:32;;;;;;;3.30;1.10;;;;;;;10.45;67.84;101347.45;87159;271;24006;-70
2024/04/12 03:28:33;;;;;;;2.00;0.80;;;;;;;10.46;67.71;101350.38;87032;272;135995;-71
2024/04/12 03:30:40;;;;;;;2.40;0.80;;;;;;;10.46;67.94;101349.81;87142;271;22567;-71
2024/04/12 03:32:44;;;;;;;4.30;0.80;;;;;;;10.45;68.15;101349.05;87018;272;136581;-71
2024/04/12 03:34:48;;;;;;;3.70;1.10;;;;;;;10.47;68.53;101355.30;87116;271;22642;-71
2024/04/12 03:39:18;;;;;;;5.00;1.20;;;;;;;10.52;68.72;101356.16;87074;276;24180;-71
2024/04/12 03:41:10;;;;;;;5.10;1.90;;;;;;;10.57;68.62;101360.96;86982;276;135908;-71
2024/04/12 03:43:11;;;;;;;4.50;1.00;;;;;;;10.66;68.45;101355.69;87193;268;22572;-74
2024/04/12 03:45:15;;;;;;;3.30;1.10;;;;;;;10.79;68.22;101356.56;87105;267;136040;-73
2024/04/12 03:47:16;;;;;;;2.10;1.00;;;;;;;10.92;67.53;101353.15;87318;267;22606;-71
2024/04/12 03:49:20;;;;;;;8.70;1.20;;;;;;;11.06;66.56;101353.02;87147;270;137134;-71
2024/04/12 03:51:21;;;;;;;7.20;1.20;;;;;;;11.21;66.12;101354.13;87127;267;22562;-73
2024/04/12 03:53:28;;;;;;;3.80;1.00;;;;;;;11.38;65.95;101354.70;87050;271;136898;-74
2024/04/12 03:55:29;;;;;;;2.40;1.10;;;;;;;11.62;65.52;101355.00;87374;270;24023;-73
2024/04/12 03:57:30;;;;;;;1.30;1.10;;;;;;;11.89;64.39;101356.59;87155;274;136057;-72
2024/04/12 03:59:37;;;;;;;5.70;0.70;;;;;;;12.12;61.93;101354.87;87133;280;22601;-74
2024/04/12 04:01:44;;;;;;;3.80;0.90;;;;;;;12.32;61.20;101358.72;87060;273;137200;-72
2024/04/12 04:03:49;;;;;;;2.10;0.80;;;;;;;12.52;60.74;101363.05;87212;279;22534;-73
2024/04/12 04:05:53;;;;;;;5.00;1.20;;;;;;;12.77;60.50;101357.81;86985;271;137552;-70
2024/04/12 04:07:54;;;;;;;3.40;1.50;;;;;;;13.10;59.44;101362.00;87327;270;24059;-73
2024/04/12 04:09:57;;;;;;;3.10;1.20;;;;;;;13.43;57.94;101359.10;87111;279;136279;-72
2024/04/12 04:11:59;;;;;;;3.90;1.10;;;;;;;13.73;56.26;101358.89;87229;275;22551;-72
2024/04/12 04:14:08;;;;;;;3.30;1.30;;;;;;;13.98;55.09;101362.48;87017;278;136083;-70
2024/04/12 04:16:10;;;;;;;2.50;1.10;;;;;;;14.23;54.58;101364.53;86971;276;136742;-71
2024/04/12 04:18:11;;;;;;;3.50;1.10;;;;;;;14.53;53.88;101360.29;87133;270;22563;-72
2024/04/12 04:20:11;;;;;;;4.50;1.10;;;;;;;14.80;52.40;101361.11;87126;271;136811;-69
2024/04/12 04:22:22;;;;;;;3.70;1.40;;;;;;;15.02;51.86;101360.54;87287;275;24378;-72
2024/04/12 04:24:24;;;;;;;6.80;1.50;;;;;;;15.28;51.30;101362.59;87054;276;137500;-71
2024/04/12 04:26:26;;;;;;;6.80;1.40;;;;;;;15.52;49.69;101364.05;87215;271;22641;-74
2024/04/12 04:28:30;;;;;;;3.50;1.10;;;;;;;15.66;49.79;101368.50;87099;269;136496;-73
2024/04/12 04:30:35;;;;;;;4.60;1.60;;;;;;;15.92;48.91;101366.64;87276;275;24283;-72
2024/04/12 04:32:35;;;;;;;3.70;1.00;;;;;;;16.22;48.17;101360.96;87151;270;137323;-71
2024/04/12 04:34:37;;;;;;;5.90;1.20;;;;;;;16.56;47.70;101359.21;87216;268;22574;-72
2024/04/12 04:36:38;;;;;;;6.60;1.40;;;;;;;16.92;46.47;101359.43;87196;271;135936;-73
2024/04/12 04:38:39;;;;;;;5.40;1.30;;;;;;;17.22;45.41;101359.08;87136;268;22578;-71
2024/04/12 04:40:41;;;;;;;3.90;1.20;;;;;;;17.47;44.73;101356.77;87071;270;137449;-73
2024/04/12 04:42:45;;;;;;;5.00;1.20;;;;;;;17.81;44.52;101362.20;87169;270;22526;-72
2024/04/12 04:44:47;;;;;;;3.50;1.30;;;;;;;18.23;43.02;101362.75;86826;272;137854;-72
2024/04/12 04:46:49;;;;;;;5.40;1.40;;;;;;;18.58;42.54;101366.65;87205;270;22569;-70
2024/04/12 04:48:51;;;;;;;1.50;1.00;;;;;;;18.86;41.39;101363.59;87332;270;138752;-71
2024/04/12 04:50:51;;;;;;;2.30;1.00;;;;;;;19.00;40.51;101365.95;87211;278;22560;-71
2024/04/12 04:52:52;;;;;;;4.30;1.00;;;;;;;18.91;40.04;101362.15;86892;271;135761;-70
2024/04/12 04:54:56;;;;;;;7.60;1.50;;;;;;;18.66;40.39;101363.48;87033;275;22558;-69
2024/04/12 04:57:00;;;;;;;8.20;0.90;;;;;;;18.46;40.86;101365.17;87217;266;138105;-66
2024/04/12 04:59:01;;;;;;;7.10;1.40;;;;;;;18.42;41.11;101369.48;87233;270;22565;-69
2024/04/12 05:01:01;;;;;;;4.40;0.80;;;;;;;18.53;41.06;101370.63;87132;271;136416;-69
2024/04/12 05:03:03;;;;;;;4.50;1.10;;;;;;;18.74;40.77;101369.21;87113;269;24129;-71
2024/04/12 05:05:04;;;;;;;3.50;1.00;;;;;;;18.98;40.45;101373.04;86989;271;136215;-72
2024/04/12 05:07:05;;;;;;;2.50;1.00;;;;;;;19.18;39.49;101372.34;87200;268;22716;-71
2024/04/12 05:09:08;;;;;;;7.80;1.80;;;;;;;19.18;39.27;101372.64;87041;271;136193;-70
2024/04/12 05:11:09;;;;;;;7.60;1.60;;;;;;;19.24;39.01;101371.60;87117;270;22771;-69
2024/04/12 05:13:11;;;;;;;3.30;0.80;;;;;;;19.32;38.82;101372.23;87028;271;135771;-69
2024/04/12 05:15:30;;;;;;;3.40;1.00;;;;;;;19.41;38.49;101376.27;87324;272;25229;-72
2024/04/12 05:17:31;;;;;;;4.10;1.00;;;;;;;19.52;37.96;101381.02;87066;271;136451;-71
2024/04/12 05:19:40;;;;;;;4.60;1.00;;;;;;;19.37;38.22;101375.05;87169;278;22676;-71
2024/04/12 05:21:42;;;;;;;3.20;1.10;;;;;;;19.33;37.91;101378.48;87023;271;136206;-68
2024/04/12 05:23:42;;;;;;;3.80;1.30;;;;;;;19.22;37.76;101381.66;87113;263;22943;-70
2024/04/12 05:25:43;;;;;;;5.20;1.60;;;;;;;19.25;38.09;101385.80;87009;270;136383;-70
2024/04/12 05:27:44;;;;;;;4.00;1.00;;;;;;;19.28;37.63;101383.36;87120;270;26281;-72
2024/04/12 05:29:45;;;;;;;4.50;1.00;;;;;;;19.24;37.89;101381.45;87052;266;136293;-72
2024/04/12 05:31:46;;;;;;;2.00;0.90;;;;;;;19.21;37.87;101381.17;87206;275;22690;-71
2024/04/12 05:33:49;;;;;;;5.70;0.90;;;;;;;19.07;38.00;101377.88;86942;279;136482;-69
2024/04/12 05:35:51;;;;;;;3.50;1.00;;;;;;;18.97;38.38;101374.38;87094;279;23101;-71
2024/04/12 05:37:52;;;;;;;4.40;1.00;;;;;;;18.91;38.73;101377.70;87047;274;136489;-70
2024/04/12 05:39:56;;;;;;;3.20;0.80;;;;;;;18.90;38.62;101374.96;87171;270;22732;-71
2024/04/12 05:41:58;;;;;;;2.30;1.00;;;;;;;18.81;38.76;101372.64;87386;275;136142;-71
2024/04/12 05:43:58;;;;;;;2.50;0.80;;;;;;;18.82;38.95;101375.45;87165;269;22610;-71
2024/04/12 05:46:01;;;;;;;3.00;1.10;;;;;;;18.94;38.72;101373.69;87094;270;136306;-70
2024/04/12 05:48:11;;;;;;;3.90;1.70;;;;;;;19.08;38.67;101378.20;87163;275;23757;-76
2024/04/12 05:50:12;;;;;;;9.50;1.40;;;;;;;19.37;38.71;101376.33;87200;269;25367;-71
2024/04/12 05:52:13;;;;;;;3.30;1.10;;;;;;;19.69;37.41;101376.02;87206;277;136463;-75
2024/04/12 05:54:16;;;;;;;7.30;1.30;;;;;;;19.66;37.14;101374.70;87247;271;24152;-69
2024/04/12 05:56:20;;;;;;;2.40;1.60;;;;;;;19.55;37.39;101375.02;86934;275;136093;-69
2024/04/12 05:58:23;;;;;;;4.30;1.50;;;;;;;19.58;37.20;101376.89;87249;271;25190;-71
2024/04/12 06:00:24;;;;;;;5.10;1.30;;;;;;;19.43;37.16;101370.47;87146;275;136995;-70
2024/04/12 06:02:26;;;;;;;3.40;0.90;;;;;;;19.29;37.61;101371.33;87079;280;22573;-71
2024/04/12 06:04:28;;;;;;;4.70;1.50;;;;;;;19.21;37.83;101370.90;86889;271;136313;-71
2024/04/12 06:06:31;;;;;;;5.10;1.50;;;;;;;19.18;38.15;101374.38;86992;268;25086;-72
2024/04/12 06:08:35;;;;;;;6.60;1.30;;;;;;;19.17;38.07;101378.64;86899;271;136201;-71
2024/04/12 06:10:37;;;;;;;3.50;1.00;;;;;;;19.12;38.59;101372.93;87172;272;22554;-72
2024/04/12 06:12:40;;;;;;;4.50;2.00;;;;;;;19.12;38.40;101372.84;87077;282;137256;-70
2024/04/12 06:14:42;;;;;;;4.80;1.50;;;;;;;19.17;38.32;101371.10;87234;268;22651;-69
2024/04/12 06:16:45;;;;;;;5.60;1.70;;;;;;;19.20;38.48;101368.79;87084;270;136530;-70
2024/04/12 06:18:46;;;;;;;5.20;1.30;;;;;;;19.29;38.20;101370.41;87358;270;23900;-71
2024/04/12 06:20:48;;;;;;;2.40;0.90;;;;;;;19.40;37.98;101371.36;87003;270;135988;-72
2024/04/12 06:22:49;;;;;;;7.20;2.10;;;;;;;19.54;37.28;101367.23;87089;271;25361;-70
2024/04/12 06:24:50;;;;;;;7.50;1.40;;;;;;;19.53;37.21;101373.15;87067;270;136214;-71
2024/04/12 06:26:57;;;;;;;4.20;2.10;;;;;;;19.50;36.78;101369.98;87070;264;22554;-71
2024/04/12 06:29:05;;;;;;;4.40;1.10;;;;;;;19.34;36.58;101368.71;89900;268;135924;-73
2024/04/12 06:31:07;;;;;;;4.20;1.10;;;;;;;19.28;36.55;101375.08;90114;263;22340;-70
2024/04/12 06:33:07;;;;;;;3.20;1.10;;;;;;;19.21;36.26;101378.23;89901;274;137447;-70
2024/04/12 06:35:20;;;;;;;3.30;0.90;;;;;;;19.05;36.58;101377.80;90014;268;22906;-72
2024/04/12 06:37:21;;;;;;;5.30;1.80;;;;;;;19.04;37.12;101375.12;89972;268;135781;-72
2024/04/12 06:39:26;;;;;;;5.10;1.50;;;;;;;19.18;37.11;101370.64;90315;270;22338;-72
2024/04/12 06:41:30;;;;;;;3.60;1.00;;;;;;;19.47;36.14;101374.96;90039;271;136781;-71
2024/04/12 06:43:33;;;;;;;3.30;0.70;;;;;;;19.60;35.18;101370.84;87166;268;23132;-70
2024/04/12 06:45:41;;;;;;;5.60;0.50;;;;;;;19.58;34.47;101367.28;87036;270;136257;-71
2024/04/12 06:47:42;;;;;;;5.30;1.30;;;;;;;19.69;34.51;101370.09;87180;271;22579;-70
2024/04/12 06:49:44;;;;;;;3.70;0.80;;;;;;;19.80;33.36;101369.75;86938;280;136051;-71
2024/04/12 06:54:05;;;;;;;4.20;0.90;;;;;;;19.84;33.57;101376.73;87100;271;22636;-69
2024/04/12 06:56:06;;;;;;;8.10;1.00;;;;;;;19.83;33.49;101377.14;87045;271;135848;-69
2024/04/12 06:58:07;;;;;;;3.70;0.60;;;;;;;19.59;33.69;101372.59;87312;279;22563;-71
2024/04/12 07:00:08;;;;;;;1.50;0.70;;;;;;;19.34;34.25;101373.59;87143;272;138302;-67
2024/04/12 07:02:09;;;;;;;5.20;0.70;;;;;;;18.98;34.64;101373.61;87157;267;22723;-68
2024/04/12 07:04:10;;;;;;;3.30;1.00;;;;;;;18.55;35.45;101372.60;87086;271;136299;-73
2024/04/12 07:06:14;;;;;;;4.20;0.90;;;;;;;18.24;36.26;101372.33;87098;272;25303;-70
2024/04/12 07:08:18;;;;;;;5.30;0.60;;;;;;;18.08;36.43;101369.99;87044;268;137429;-71
2024/04/12 07:10:20;;;;;;;4.20;1.30;;;;;;;17.99;36.70;101374.71;87105;272;22813;-72
2024/04/12 07:12:21;;;;;;;4.40;0.90;;;;;;;17.77;36.81;101374.28;86996;269;136551;-70
2024/04/12 07:14:24;;;;;;;2.80;1.00;;;;;;;17.52;37.44;101376.42;87525;272;22639;-72
2024/04/12 07:16:26;;;;;;;4.30;0.60;;;;;;;17.32;38.09;101370.80;87091;271;136412;-70
2024/04/12 07:18:29;;;;;;;5.20;0.90;;;;;;;17.22;38.32;101374.99;87280;278;24004;-71
2024/04/12 07:20:36;;;;;;;5.90;0.80;;;;;;;17.14;37.64;101373.91;87283;275;135906;-71
2024/04/12 07:22:37;;;;;;;4.50;0.90;;;;;;;17.07;37.88;101372.25;87240;279;22618;-71
2024/04/12 07:24:39;;;;;;;7.80;1.40;;;;;;;17.03;37.85;101370.27;87064;278;137034;-75
2024/04/12 07:26:40;;;;;;;4.50;0.50;;;;;;;17.01;38.07;101368.77;87287;274;22555;-74
2024/04/12 07:28:41;;;;;;;5.10;0.50;;;;;;;17.01;38.20;101372.36;87279;274;136384;-74
2024/04/12 07:30:46;;;;;;;3.50;1.20;;;;;;;16.98;38.03;101382.23;87476;266;25328;-73
2024/04/12 07:32:46;;;;;;;5.00;0.60;;;;;;;16.89;38.45;101374.71;87278;267;136498;-75
2024/04/12 07:34:48;;;;;;;6.40;0.90;;;;;;;16.80;39.01;101371.86;87340;270;22567;-74
2024/04/12 07:36:52;;;;;;;6.70;0.60;;;;;;;16.77;39.18;101367.74;87742;274;135942;-74
2024/04/12 07:38:55;;;;;;;3.20;0.90;;;;;;;16.80;39.13;101365.04;87918;272;25181;-72
2024/04/12 07:40:56;;;;;;;7.80;1.40;;;;;;;16.80;39.14;101372.09;88685;263;136031;-74
2024/04/12 07:42:58;;;;;;;2.30;0.60;;;;;;;16.70;39.31;101368.80;88690;266;21688;-75
2024/04/12 07:44:59;;;;;;;4.60;0.50;;;;;;;16.61;39.46;101366.60;87601;267;136153;-71
2024/04/12 07:46:59;;;;;;;7.10;0.70;;;;;;;16.57;39.73;101359.84;88269;270;22625;-76
2024/04/12 07:49:02;;;;;;;3.40;1.10;;;;;;;16.58;40.07;101356.48;87820;271;136375;-74
2024/04/12 07:51:04;;;;;;;3.10;1.20;;;;;;;16.61;40.10;101357.52;87490;277;23287;-74
2024/04/12 07:53:15;;;;;;;4.70;0.90;;;;;;;16.60;39.95;101358.60;88028;270;135749;-70
2024/04/12 07:55:24;;;;;;;4.30;1.10;;;;;;;16.57;40.39;101354.95;87430;270;25205;-73
2024/04/12 07:57:25;;;;;;;3.70;1.10;;;;;;;16.60;40.67;101351.44;87202;271;136357;-72
2024/04/12 07:59:25;;;;;;;4.50;0.80;;;;;;;16.68;41.26;101349.75;87512;270;25398;-74
2024/04/12 08:01:27;;;;;;;5.20;1.70;;;;;;;16.78;40.69;101344.27;87167;271;136471;-74
2024/04/12 08:03:36;;;;;;;4.20;0.80;;;;;;;16.88;40.04;101340.08;87141;271;22562;-77
2024/04/12 08:05:49;;;;;;;3.00;0.50;;;;;;;16.98;39.59;101335.86;87185;270;135900;-75
2024/04/12 08:07:49;;;;;;;3.50;1.10;;;;;;;17.04;39.07;101335.58;86558;268;910565;-75
2024/04/12 08:10:09;;;;;;;6.40;1.10;;;;;;;17.09;38.95;101333.55;87160;267;136567;-77
2024/04/12 08:12:23;;;;;;;4.30;1.00;;;;;;;17.11;38.55;101330.89;87323;271;137723;-73
2024/04/12 08:14:26;;;;;;;4.00;0.80;;;;;;;17.14;38.50;101327.88;87541;270;23280;-76
2024/04/12 08:16:27;;;;;;;1.90;0.50;;;;;;;17.14;38.09;101322.40;87508;266;136626;-77
2024/04/12 08:18:28;;;;;;;4.00;0.50;;;;;;;17.17;38.22;101321.02;87725;270;22691;-72
2024/04/12 08:20:39;;;;;;;4.00;1.50;;;;;;;17.14;38.04;101320.78;87573;271;137348;-75
2024/04/12 08:22:42;;;;;;;5.90;1.10;;;;;;;17.12;37.98;101315.55;87763;270;23998;-74
2024/04/12 08:24:49;;;;;;;2.60;0.60;;;;;;;17.06;38.23;101321.81;87376;270;136325;-76
2024/04/12 08:26:51;;;;;;;5.00;1.80;;;;;;;17.06;38.70;101321.90;87214;272;22625;-76
2024/04/12 08:28:52;;;;;;;4.10;0.90;;;;;;;17.10;38.69;101319.00;87433;268;136652;-75
2024/04/12 08:30:53;;;;;;;4.50;0.50;;;;;;;17.15;38.30;101310.59;87456;271;25132;-76
2024/04/12 08:32:55;;;;;;;2.80;0.50;;;;;;;17.17;38.07;101307.15;87318;275;136735;-74
2024/04/12 08:34:58;;;;;;;3.10;1.10;;;;;;;17.16;38.18;101304.04;87473;278;23545;-78
2024/04/12 08:37:03;;;;;;;5.80;1.30;;;;;;;17.15;38.17;101301.05;87061;279;137445;-73
2024/04/12 08:39:14;;;;;;;3.50;0.30;;;;;;;17.16;37.76;101300.31;87333;270;22563;-73
2024/04/12 08:41:15;;;;;;;2.10;0.40;;;;;;;17.20;38.06;101301.38;87163;270;136330;-75
2024/04/12 08:43:19;;;;;;;1.50;0.50;;;;;;;17.23;38.06;101293.01;87208;276;25157;-74
2024/04/12 08:45:26;;;;;;;4.20;0.80;;;;;;;17.26;37.94;101295.45;87219;269;135805;-74
2024/04/12 08:49:32;;;;;;;6.00;1.60;;;;;;;17.36;38.04;101287.56;87208;271;136288;-75
2024/04/12 08:51:34;;;;;;;5.00;1.30;;;;;;;17.42;37.81;101287.42;87354;267;22567;-73
2024/04/12 08:53:44;;;;;;;6.90;1.00;;;;;;;17.48;37.64;101287.62;87253;278;136063;-75
2024/04/12 08:55:45;;;;;;;2.30;0.50;;;;;;;17.53;37.38;101286.23;87269;266;24010;-76
2024/04/12 08:57:48;;;;;;;3.30;0.40;;;;;;;17.54;37.11;101284.86;87050;280;137950;-74
2024/04/12 08:59:49;;;;;;;7.00;4.20;;;;;;;17.52;37.13;101278.45;87242;272;22580;-76
2024/04/12 09:01:51;;;;;;;4.90;2.90;;;;;;;17.51;37.46;101273.17;86990;272;135897;-75
2024/04/12 09:04:03;;;;;;;3.50;0.70;;;;;;;17.53;37.56;101269.52;87190;267;24010;-74
2024/04/12 09:06:04;;;;;;;1.60;0.60;;;;;;;17.59;37.58;101263.38;87266;270;22664;-73
2024/04/12 09:08:05;;;;;;;7.00;0.70;;;;;;;17.63;37.63;101257.88;87197;279;136242;-77
2024/04/12 09:10:06;;;;;;;3.50;0.60;;;;;;;17.65;37.66;101251.31;87248;270;22531;-74
2024/04/12 09:12:12;;;;;;;2.00;0.30;;;;;;;17.70;37.37;101256.41;87155;279;136889;-80
2024/04/12 09:14:20;;;;;;;3.10;0.40;;;;;;;17.77;37.14;101254.05;87455;278;24093;-78
2024/04/12 09:16:23;;;;;;;1.80;0.60;;;;;;;17.85;36.45;101248.02;87510;268;136515;-77
2024/04/12 09:18:37;;;;;;;4.50;0.50;;;;;;;17.91;36.29;101242.41;87564;266;22549;-78
2024/04/12 09:20:38;;;;;;;1.30;0.40;;;;;;;17.92;35.55;101254.67;87377;278;135940;-77
2024/04/12 09:22:43;;;;;;;2.00;0.30;;;;;;;17.85;35.07;101248.48;87567;278;23397;-78
2024/04/12 09:24:47;;;;;;;3.80;0.60;;;;;;;17.81;35.04;101243.95;87065;275;136341;-76
2024/04/12 09:26:58;;;;;;;1.30;0.60;;;;;;;17.79;35.17;101237.20;87199;268;23665;-80
2024/04/12 09:29:09;;;;;;;3.20;0.40;;;;;;;17.83;35.05;101238.93;87143;269;137005;-73
2024/04/12 09:33:31;;;;;;;6.20;0.60;;;;;;;17.87;34.79;101230.52;87027;276;137194;-77
2024/04/12 09:35:36;;;;;;;1.70;0.40;;;;;;;17.82;35.14;101223.79;87190;268;22768;-75
2024/04/12 09:37:39;;;;;;;4.90;0.80;;;;;;;17.82;35.05;101222.75;87332;278;135883;-75
2024/04/12 09:42:03;;;;;;;2.40;0.40;;;;;;;17.86;34.69;101213.97;87368;269;136089;-78
2024/04/12 09:44:14;;;;;;;3.90;0.50;;;;;;;17.85;34.83;101213.89;87294;271;136436;-76
2024/04/12 09:46:22;;;;;;;2.60;0.50;;;;;;;17.85;35.17;101214.64;87292;270;23829;-73
2024/04/12 10:38:00;;;;;;;2.00;0.30;;;;;;;18.26;34.39;101172.17;87373;277;136653;-73